Time,TemperatureF,DewpointF,PressureIn,WindDirection,WindDirectionDegrees,WindSpeedMPH,WindSpeedGustMPH,Humidity,HourlyPrecipIn,Conditions,Clouds,dailyrainin,SoftwareType,DateUTC
2013-03-16 10:00:00,34.0,5.8,29.82,North,0,0.0,0.0,30,0.00,,-RA,0.00,VWS V14.00,2013-03-16 14:00:00,
2013-03-16 10:45:00,32.5,7.9,29.79,North,0,0.0,0.0,35,0.00,,-RA,0.00,VWS V14.00,2013-03-16 14:45:00,
2013-03-16 11:00:00,32.7,9.3,29.79,North,0,0.0,0.0,37,0.00,,,0.00,VWS V14.00,2013-03-16 15:00:00,
2013-03-16 11:15:00,32.4,10.8,29.79,North,0,0.0,0.0,40,0.00,,,0.00,VWS V14.00,2013-03-16 15:15:00,
2013-03-16 11:30:00,31.8,10.8,29.79,North,0,0.0,0.0,41,0.00,,,0.00,VWS V14.00,2013-03-16 15:30:00,
2013-03-16 11:45:00,32.0,12.1,29.79,North,0,0.0,0.0,43,0.00,,,0.00,VWS V14.00,2013-03-16 15:45:00,
2013-03-16 12:00:00,32.0,12.6,29.79,North,0,0.0,0.0,44,0.00,,,0.00,VWS V14.00,2013-03-16 16:00:00,
2013-03-16 12:15:00,32.4,13.4,29.79,North,0,0.0,0.0,45,0.00,,,0.00,VWS V14.00,2013-03-16 16:15:00,
2013-03-16 12:30:00,32.5,14.6,29.79,North,0,0.0,0.0,47,0.00,,,0.00,VWS V14.00,2013-03-16 16:30:00,
2013-03-16 12:45:00,34.2,17.0,29.79,North,0,0.0,0.0,49,0.00,,,0.00,VWS V14.00,2013-03-16 16:45:00,
2013-03-16 13:00:00,34.0,16.8,29.79,North,0,0.0,0.0,49,0.00,,,0.00,VWS V14.00,2013-03-16 17:00:00,
2013-03-16 13:15:00,33.1,15.1,29.79,North,0,0.0,0.0,47,0.00,,,0.00,VWS V14.00,2013-03-16 17:15:00,
2013-03-16 13:30:00,34.3,17.2,29.76,North,0,0.0,0.0,49,0.00,,,0.00,VWS V14.00,2013-03-16 17:30:00,
2013-03-16 13:45:00,34.5,16.4,29.76,North,0,0.0,0.0,47,0.00,,,0.00,VWS V14.00,2013-03-16 17:45:00,
2013-03-16 14:00:00,33.8,15.2,29.76,North,0,0.0,0.0,46,0.00,,,0.00,VWS V14.00,2013-03-16 18:00:00,
2013-03-16 14:15:00,35.1,16.9,29.73,North,0,0.0,0.0,47,0.00,,,0.00,VWS V14.00,2013-03-16 18:15:00,
2013-03-16 14:30:00,36.0,17.2,29.73,North,0,0.0,0.0,46,0.00,,,0.00,VWS V14.00,2013-03-16 18:30:00,
2013-03-16 14:45:00,36.0,17.2,29.73,North,0,0.0,0.0,46,0.00,,,0.00,VWS V14.00,2013-03-16 18:45:00,
2013-03-16 15:00:00,35.6,16.4,29.73,North,0,0.0,0.0,45,0.00,,,0.00,VWS V14.00,2013-03-16 19:00:00,
2013-03-16 15:15:00,36.1,16.4,29.70,North,0,0.0,0.0,44,0.00,,,0.00,VWS V14.00,2013-03-16 19:15:00,
2013-03-16 15:30:00,35.1,14.8,29.73,North,0,0.0,0.0,43,0.00,,,0.00,VWS V14.00,2013-03-16 19:30:00,
2013-03-16 15:45:00,34.5,14.3,29.73,North,0,0.0,0.0,43,0.00,,,0.00,VWS V14.00,2013-03-16 19:45:00,
2013-03-16 16:00:00,34.5,14.3,29.73,North,0,0.0,0.0,43,0.00,,,0.00,VWS V14.00,2013-03-16 20:00:00,
2013-03-16 16:15:00,34.5,14.3,29.73,North,0,0.0,0.0,43,0.00,,,0.00,VWS V14.00,2013-03-16 20:15:00,
2013-03-16 16:30:00,33.8,14.2,29.73,North,0,0.0,0.0,44,0.00,,,0.00,VWS V14.00,2013-03-16 20:30:00,
2013-03-16 16:45:00,34.0,14.9,29.73,North,0,0.0,0.0,45,0.00,,,0.00,VWS V14.00,2013-03-16 20:45:00,
2013-03-16 17:01:00,33.8,14.7,29.73,North,0,0.0,0.0,45,0.00,,,0.00,VWS V14.00,2013-03-16 21:01:00,
2013-03-16 17:15:00,33.4,14.4,29.76,North,0,0.0,0.0,45,0.00,,,0.00,VWS V14.00,2013-03-16 21:15:00,
2013-03-16 17:30:00,33.1,14.6,29.76,North,0,0.0,0.0,46,0.00,,,0.00,VWS V14.00,2013-03-16 21:30:00,
2013-03-16 17:46:00,32.9,14.4,29.76,North,0,0.0,0.0,46,0.00,,OVC011,0.00,VWS V14.00,2013-03-16 21:46:00,
2013-03-16 18:01:00,32.5,15.0,29.76,North,0,0.0,0.0,48,0.00,,OVC011,0.00,VWS V14.00,2013-03-16 22:01:00,
2013-03-16 18:15:00,32.4,15.4,29.79,North,0,0.0,0.0,49,0.00,,OVC011,0.00,VWS V14.00,2013-03-16 22:15:00,
2013-03-16 18:31:00,32.4,15.8,29.79,North,0,0.0,0.0,50,0.00,,OVC011,0.00,VWS V14.00,2013-03-16 22:31:00,
2013-03-16 18:45:00,32.2,15.6,29.79,North,0,0.0,0.0,50,0.00,,,0.00,VWS V14.00,2013-03-16 22:45:00,
2013-03-16 19:00:00,32.0,15.9,29.79,North,0,0.0,0.0,51,0.00,,,0.00,VWS V14.00,2013-03-16 23:00:00,
2013-03-16 19:15:00,32.0,15.9,29.82,North,0,0.0,0.0,51,0.00,,,0.00,VWS V14.00,2013-03-16 23:15:00,
2013-03-16 19:30:00,32.0,15.9,29.82,North,0,0.0,0.0,51,0.00,,,0.00,VWS V14.00,2013-03-16 23:30:00,
2013-03-16 19:45:00,31.8,16.6,29.82,North,0,0.0,0.0,53,0.00,,,0.00,VWS V14.00,2013-03-16 23:45:00,
2013-03-16 20:00:00,31.6,17.3,29.82,North,0,0.0,0.0,55,0.00,,,0.00,VWS V14.00,2013-03-17 00:00:00,
2013-03-16 20:15:00,31.6,17.3,29.82,North,0,0.0,0.0,55,0.00,,,0.00,VWS V14.00,2013-03-17 00:15:00,
2013-03-16 20:30:00,31.5,17.2,29.85,North,0,0.0,0.0,55,0.00,,,0.00,VWS V14.00,2013-03-17 00:30:00,
2013-03-16 20:45:00,31.5,17.6,29.85,North,0,0.0,0.0,56,0.00,,,0.00,VWS V14.00,2013-03-17 00:45:00,
2013-03-16 21:00:00,31.5,17.6,29.85,North,0,0.0,0.0,56,0.00,,,0.00,VWS V14.00,2013-03-17 01:00:00,
2013-03-16 21:15:00,31.3,17.8,29.85,North,0,0.0,0.0,57,0.00,,,0.00,VWS V14.00,2013-03-17 01:15:00,
2013-03-16 21:30:00,31.5,18.0,29.88,North,0,0.0,0.0,57,0.00,,,0.00,VWS V14.00,2013-03-17 01:30:00,
2013-03-16 21:45:00,31.6,18.2,29.88,North,0,0.0,0.0,57,0.00,,OVC031,0.00,VWS V14.00,2013-03-17 01:45:00,
2013-03-16 22:00:00,31.5,18.0,29.88,North,0,0.0,0.0,57,0.00,,OVC031,0.00,VWS V14.00,2013-03-17 02:00:00,
2013-03-16 22:15:00,31.5,18.0,29.88,North,0,0.0,0.0,57,0.00,,OVC031,0.00,VWS V14.00,2013-03-17 02:15:00,
2013-03-16 22:30:00,31.3,17.4,29.91,North,0,0.0,0.0,56,0.00,,OVC031,0.00,VWS V14.00,2013-03-17 02:30:00,
2013-03-16 22:45:00,31.1,17.2,29.91,North,0,0.0,0.0,56,0.00,,OVC033,0.00,VWS V14.00,2013-03-17 02:45:00,
2013-03-16 23:00:00,31.3,17.4,29.91,North,0,0.0,0.0,56,0.00,,OVC033,0.00,VWS V14.00,2013-03-17 03:00:00,
2013-03-16 23:15:00,30.9,17.1,29.91,North,0,0.0,0.0,56,0.00,,OVC033,0.00,VWS V14.00,2013-03-17 03:15:00,
2013-03-16 23:30:00,30.7,17.3,29.94,North,0,0.0,0.0,57,0.00,,OVC033,0.00,VWS V14.00,2013-03-17 03:30:00,
2013-03-16 23:45:00,30.6,16.7,29.94,North,0,0.0,0.0,56,0.00,,OVC070,0.00,VWS V14.00,2013-03-17 03:45:00,